Time;durP1;ratioP1;P1;durP2;ratioP2;P2;SDS_P1;SDS_P2;PMS_P1;PMS_P2;Temp;Humidity;BMP_temperature;BMP_pressure;BME280_temperature;BME280_humidity;BME280_pressure;Samples;Min_cycle;Max_cycle;Signal;HPM_P1;HPM_P2
2022/04/05 00:00:01;;;;;;;1.20;1.00;;;6.50;98.00;;;;;;6121181;23;20439;-69
2022/04/05 00:02:28;;;;;;;1.30;1.30;;;6.40;98.00;;;;;;6121351;23;20425;-69
2022/04/05 00:04:54;;;;;;;2.13;1.67;;;6.40;98.00;;;;;;6120957;23;20413;-69
2022/04/05 00:07:21;;;;;;;1.20;1.10;;;6.40;98.00;;;;;;6121605;23;20418;-69
2022/04/05 00:09:50;;;;;;;2.10;1.60;;;6.40;98.00;;;;;;6121293;23;20457;-69
2022/04/05 00:12:20;;;;;;;1.20;1.10;;;6.40;98.00;;;;;;6121149;23;20456;-69
2022/04/05 00:14:47;;;;;;;1.50;1.20;;;6.40;98.00;;;;;;6121437;23;20411;-70
2022/04/05 00:17:14;;;;;;;2.07;1.60;;;6.40;98.00;;;;;;6121108;23;20484;-69
2022/04/05 00:19:41;;;;;;;1.90;1.33;;;6.40;98.00;;;;;;6095008;23;20447;-69
2022/04/05 00:22:08;;;;;;;1.87;1.67;;;6.30;98.00;;;;;;6121440;23;20445;-69
2022/04/05 00:24:35;;;;;;;1.63;1.40;;;6.40;98.00;;;;;;6071910;23;20418;-69
2022/04/05 00:27:04;;;;;;;1.23;1.07;;;6.30;98.00;;;;;;6121614;23;20467;-69
2022/04/05 00:29:31;;;;;;;1.83;1.60;;;6.30;98.00;;;;;;6121757;23;20440;-69
2022/04/05 00:31:58;;;;;;;1.87;1.30;;;6.30;98.00;;;;;;6121099;23;20883;-69
2022/04/05 00:34:25;;;;;;;1.53;1.20;;;6.30;98.00;;;;;;6121586;23;20422;-69
2022/04/05 00:36:53;;;;;;;1.37;1.33;;;6.40;98.00;;;;;;6121432;23;20408;-69
2022/04/05 00:39:20;;;;;;;1.77;1.67;;;6.30;98.00;;;;;;6121694;23;20403;-69
2022/04/05 00:41:48;;;;;;;1.30;1.10;;;6.30;98.00;;;;;;6121709;23;20439;-70
2022/04/05 00:44:17;;;;;;;1.50;1.30;;;6.30;98.00;;;;;;6121747;23;20724;-69
2022/04/05 00:46:44;;;;;;;2.20;1.33;;;6.20;98.00;;;;;;6121392;23;20419;-69
2022/04/05 00:49:16;;;;;;;1.40;1.20;;;6.30;98.00;;;;;;6121183;23;20926;-70
2022/04/05 00:51:43;;;;;;;1.20;1.20;;;6.20;98.00;;;;;;6120485;23;20459;-69
2022/04/05 00:54:13;;;;;;;1.40;1.17;;;6.20;98.00;;;;;;6121452;23;20402;-69
2022/04/05 00:56:43;;;;;;;2.17;2.00;;;6.30;98.00;;;;;;6121181;23;20461;-69
2022/04/05 00:59:11;;;;;;;1.20;1.10;;;6.30;98.00;;;;;;6095109;23;20504;-69
2022/04/05 01:01:40;;;;;;;1.40;1.20;;;6.30;98.00;;;;;;6120774;23;20424;-69
2022/04/05 01:04:08;;;;;;;2.00;1.47;;;6.40;98.00;;;;;;6095936;23;20422;-69
2022/04/05 01:06:39;;;;;;;1.20;1.13;;;6.40;98.00;;;;;;6121163;23;20445;-70
2022/04/05 01:09:08;;;;;;;2.13;1.60;;;6.40;98.00;;;;;;6121091;23;20405;-69
2022/04/05 01:11:35;;;;;;;1.20;1.20;;;6.40;98.00;;;;;;6121186;23;20418;-69
2022/04/05 01:14:02;;;;;;;1.40;1.17;;;6.40;98.00;;;;;;6121332;23;20473;-69
2022/04/05 01:16:30;;;;;;;1.33;1.10;;;6.40;98.00;;;;;;6121214;23;20465;-69
2022/04/05 01:18:58;;;;;;;1.63;1.53;;;6.30;98.00;;;;;;6121526;23;20419;-69
2022/04/05 01:21:27;;;;;;;4.50;1.50;;;6.30;98.00;;;;;;6094973;23;20459;-69
2022/04/05 01:24:12;;;;;;;1.30;1.20;;;6.30;98.00;;;;;;6120940;23;20425;-69
2022/04/05 01:26:40;;;;;;;1.30;1.30;;;6.30;98.00;;;;;;6121291;23;20419;-70
2022/04/05 01:29:08;;;;;;;1.40;1.33;;;6.30;98.00;;;;;;6121179;23;20431;-69
2022/04/05 01:31:41;;;;;;;1.30;1.20;;;6.30;98.00;;;;;;6121331;23;20422;-69
2022/04/05 01:34:08;;;;;;;1.30;1.17;;;6.30;98.00;;;;;;6121548;23;20433;-69
2022/04/05 01:36:41;;;;;;;1.60;1.10;;;6.30;98.00;;;;;;6121274;23;20438;-69
2022/04/05 01:39:09;;;;;;;6.03;1.73;;;6.30;98.00;;;;;;6121052;23;20405;-69
2022/04/05 01:41:37;;;;;;;3.57;2.27;;;6.30;98.00;;;;;;6121025;23;20815;-69
2022/04/05 01:44:06;;;;;;;1.20;1.00;;;6.30;98.00;;;;;;6120560;23;20429;-69
2022/04/05 01:46:33;;;;;;;1.80;1.40;;;6.10;98.00;;;;;;6120015;23;20922;-69
2022/04/05 01:49:01;;;;;;;1.20;1.00;;;6.10;98.00;;;;;;6120748;23;20759;-69
2022/04/05 01:51:27;;;;;;;1.60;1.27;;;6.20;98.00;;;;;;6120818;23;20933;-69
2022/04/05 01:53:59;;;;;;;1.40;1.10;;;6.20;98.00;;;;;;6120477;23;20451;-69
2022/04/05 01:56:26;;;;;;;1.30;1.20;;;6.10;98.00;;;;;;6120855;23;20403;-69
2022/04/05 01:58:55;;;;;;;2.13;1.47;;;6.10;98.00;;;;;;6120933;23;20483;-69
2022/04/05 02:01:21;;;;;;;2.33;2.07;;;6.00;98.00;;;;;;6121086;23;20406;-69
2022/04/05 02:03:48;;;;;;;1.23;1.10;;;6.00;98.00;;;;;;6121097;23;20411;-69
2022/04/05 02:06:15;;;;;;;1.20;1.00;;;5.90;98.00;;;;;;6120469;23;20423;-69
2022/04/05 02:08:42;;;;;;;1.60;1.17;;;5.90;98.00;;;;;;6120855;23;20871;-69
2022/04/05 02:11:09;;;;;;;1.90;1.30;;;6.00;98.00;;;;;;6094852;23;20423;-69
2022/04/05 02:13:36;;;;;;;1.67;1.30;;;6.00;98.00;;;;;;6120776;23;20470;-69
2022/04/05 02:16:05;;;;;;;1.43;1.33;;;6.00;98.00;;;;;;6095476;23;20903;-69
2022/04/05 02:18:32;;;;;;;1.37;1.17;;;6.00;98.00;;;;;;6121103;23;20952;-69
2022/04/05 02:20:59;;;;;;;1.73;1.67;;;6.00;98.00;;;;;;6120891;23;20431;-69
2022/04/05 02:23:26;;;;;;;1.30;1.30;;;6.10;98.00;;;;;;6121203;23;20452;-69
2022/04/05 02:25:53;;;;;;;1.83;1.47;;;6.10;98.00;;;;;;6121010;23;20773;-69
2022/04/05 02:28:20;;;;;;;1.20;1.20;;;6.00;98.00;;;;;;6121620;23;20415;-69
2022/04/05 02:30:47;;;;;;;1.70;1.47;;;6.00;98.00;;;;;;6120095;23;20444;-69
2022/04/05 02:33:17;;;;;;;1.30;1.10;;;5.90;98.00;;;;;;6120877;23;20444;-69
2022/04/05 02:35:45;;;;;;;1.20;1.00;;;6.00;98.00;;;;;;6120168;23;20478;-69
2022/04/05 02:38:12;;;;;;;1.20;1.00;;;5.90;98.00;;;;;;6120718;23;20433;-69
2022/04/05 02:40:39;;;;;;;1.40;1.27;;;5.90;98.00;;;;;;6120566;23;20775;-69
2022/04/05 02:43:06;;;;;;;1.20;1.10;;;5.90;98.00;;;;;;6120910;23;20703;-69
2022/04/05 02:45:33;;;;;;;1.90;1.37;;;5.90;98.00;;;;;;6120896;23;20446;-69
2022/04/05 02:48:00;;;;;;;1.73;1.20;;;5.90;98.00;;;;;;6120634;23;20408;-69
2022/04/05 02:50:28;;;;;;;1.33;1.23;;;5.90;98.00;;;;;;6119951;23;20467;-69
2022/04/05 02:52:55;;;;;;;1.90;1.80;;;5.80;98.00;;;;;;6120457;23;20447;-69
2022/04/05 02:55:23;;;;;;;1.37;1.30;;;5.80;98.00;;;;;;6120302;23;20409;-69
2022/04/05 02:57:51;;;;;;;2.33;1.63;;;6.00;98.00;;;;;;6120699;23;20739;-69
2022/04/05 03:00:19;;;;;;;1.33;1.27;;;6.10;98.00;;;;;;6120294;23;20402;-69
2022/04/05 03:02:47;;;;;;;1.20;1.00;;;6.00;98.00;;;;;;6120275;23;20479;-69
2022/04/05 03:05:14;;;;;;;1.30;1.23;;;6.00;98.00;;;;;;6120441;23;20444;-69
2022/04/05 03:07:42;;;;;;;1.20;1.10;;;6.00;98.00;;;;;;6120767;23;20433;-69
2022/04/05 03:10:10;;;;;;;1.20;1.20;;;5.90;98.00;;;;;;6120547;23;20474;-69
2022/04/05 03:12:38;;;;;;;1.20;1.20;;;5.70;98.00;;;;;;6120645;23;20421;-69
2022/04/05 03:15:07;;;;;;;1.63;1.57;;;5.70;98.00;;;;;;6120693;23;20401;-69
2022/04/05 03:17:35;;;;;;;1.20;1.10;;;5.70;98.00;;;;;;6120593;23;20424;-69
2022/04/05 03:20:02;;;;;;;1.20;1.10;;;5.80;98.00;;;;;;6120289;23;20438;-69
2022/04/05 03:22:29;;;;;;;1.20;1.00;;;5.80;98.00;;;;;;6121151;23;20424;-69
2022/04/05 03:24:57;;;;;;;1.20;1.20;;;5.70;98.00;;;;;;6121534;23;20417;-69
2022/04/05 03:27:24;;;;;;;2.30;1.50;;;5.70;98.00;;;;;;6121678;23;20752;-69
2022/04/05 03:29:51;;;;;;;1.40;1.30;;;5.70;98.00;;;;;;6121253;23;20418;-69
2022/04/05 03:32:19;;;;;;;1.20;1.20;;;5.70;98.00;;;;;;6121548;23;20418;-66
2022/04/05 03:34:49;;;;;;;2.07;1.50;;;5.70;98.00;;;;;;6121132;23;20491;-67
2022/04/05 03:37:16;;;;;;;1.20;1.00;;;5.70;98.00;;;;;;6096762;23;20407;-67
2022/04/05 03:39:44;;;;;;;1.70;1.33;;;5.70;98.00;;;;;;6121419;23;20450;-67
2022/04/05 03:42:12;;;;;;;1.73;1.20;;;5.70;98.00;;;;;;6121506;23;20414;-67
2022/04/05 03:44:39;;;;;;;1.40;1.30;;;5.60;98.00;;;;;;6121822;23;20430;-67
2022/04/05 03:47:06;;;;;;;1.83;1.13;;;5.50;98.00;;;;;;6121317;23;20461;-67
2022/04/05 03:49:34;;;;;;;1.43;1.20;;;5.40;98.00;;;;;;6121476;23;20439;-66
2022/04/05 03:52:01;;;;;;;2.20;1.40;;;5.50;98.00;;;;;;6095944;23;20410;-66
2022/04/05 03:54:28;;;;;;;1.30;1.10;;;5.40;98.00;;;;;;6121685;23;20471;-67
2022/04/05 03:56:55;;;;;;;2.40;1.97;;;5.40;98.00;;;;;;6121211;23;20419;-66
2022/04/05 03:59:23;;;;;;;1.20;1.00;;;5.30;98.00;;;;;;6095889;23;20413;-67
2022/04/05 04:01:50;;;;;;;1.60;1.40;;;5.30;98.00;;;;;;6121734;23;20756;-67
2022/04/05 04:04:17;;;;;;;1.20;1.10;;;5.20;98.00;;;;;;6121802;23;20423;-67
2022/04/05 04:06:45;;;;;;;4.60;1.93;;;5.30;98.00;;;;;;6121743;23;20404;-66
2022/04/05 04:09:13;;;;;;;1.27;1.20;;;5.20;98.00;;;;;;6121845;23;20429;-66
2022/04/05 04:11:41;;;;;;;2.37;1.87;;;5.20;98.00;;;;;;6121550;23;20430;-66
2022/04/05 04:14:08;;;;;;;1.40;1.30;;;5.20;98.00;;;;;;6096183;23;20546;-67
2022/04/05 04:16:36;;;;;;;1.83;1.20;;;5.20;98.00;;;;;;6095338;23;20423;-67
2022/04/05 04:19:04;;;;;;;1.20;1.20;;;5.20;98.00;;;;;;6121182;23;20900;-67
2022/04/05 04:21:32;;;;;;;1.30;1.30;;;5.20;98.00;;;;;;6121291;23;20403;-67
2022/04/05 04:23:59;;;;;;;2.07;1.93;;;5.10;98.00;;;;;;6121427;23;20436;-66
2022/04/05 04:26:25;;;;;;;1.20;1.00;;;5.10;98.00;;;;;;6096164;23;20434;-66
2022/04/05 04:28:55;;;;;;;1.60;1.30;;;5.10;98.00;;;;;;6121027;23;20445;-69
2022/04/05 04:31:22;;;;;;;1.20;1.00;;;5.20;98.00;;;;;;6121426;23;20425;-69
2022/04/05 04:33:51;;;;;;;1.60;1.30;;;5.10;98.00;;;;;;6121018;23;20484;-69
2022/04/05 04:36:19;;;;;;;2.07;1.43;;;5.20;98.00;;;;;;6121302;23;20464;-69
2022/04/05 04:38:46;;;;;;;1.50;1.40;;;5.10;98.00;;;;;;6121582;23;20410;-69
2022/04/05 04:41:13;;;;;;;1.60;1.30;;;5.10;98.00;;;;;;6121368;23;20418;-69
2022/04/05 04:43:41;;;;;;;1.70;1.20;;;5.10;98.00;;;;;;6121496;23;20451;-69
2022/04/05 04:46:07;;;;;;;2.77;1.70;;;5.10;98.00;;;;;;6120785;23;20457;-69
2022/04/05 04:48:35;;;;;;;1.20;1.00;;;5.10;98.00;;;;;;6121579;23;20446;-69
2022/04/05 04:51:04;;;;;;;2.33;1.57;;;5.10;98.00;;;;;;6121116;23;20480;-69
2022/04/05 04:53:31;;;;;;;1.20;1.10;;;5.20;98.00;;;;;;6121827;23;20431;-69
2022/04/05 04:55:58;;;;;;;1.70;1.30;;;5.20;98.00;;;;;;6121309;23;20417;-69
2022/04/05 04:58:25;;;;;;;1.63;1.23;;;5.20;98.00;;;;;;6121698;23;20709;-69
2022/04/05 05:00:53;;;;;;;1.27;1.23;;;5.10;98.00;;;;;;6121576;23;20415;-69
2022/04/05 05:03:20;;;;;;;2.67;1.97;;;5.10;98.00;;;;;;6121392;23;20441;-69
2022/04/05 05:05:47;;;;;;;1.40;1.33;;;5.10;98.00;;;;;;6121540;23;20446;-69
2022/04/05 05:08:15;;;;;;;3.10;1.47;;;5.10;98.00;;;;;;6121237;23;20417;-69
2022/04/05 05:10:43;;;;;;;1.70;1.50;;;5.10;98.00;;;;;;6121373;23;20465;-69
2022/04/05 05:13:10;;;;;;;1.27;1.20;;;5.10;98.00;;;;;;6121094;23;20437;-69
2022/04/05 05:15:37;;;;;;;1.60;1.57;;;5.20;98.00;;;;;;6121574;23;20417;-69
2022/04/05 05:18:04;;;;;;;1.20;1.03;;;5.20;98.00;;;;;;6121227;23;20436;-69
2022/04/05 05:20:31;;;;;;;1.50;1.43;;;5.20;98.00;;;;;;6120944;23;20469;-69
2022/04/05 05:22:59;;;;;;;2.13;1.67;;;5.20;98.00;;;;;;6120825;23;20422;-69
2022/04/05 05:25:28;;;;;;;1.50;1.50;;;5.20;98.00;;;;;;6121236;23;20402;-69
2022/04/05 05:27:55;;;;;;;1.40;1.30;;;5.10;98.00;;;;;;6120493;23;20422;-69
2022/04/05 05:30:23;;;;;;;1.20;1.00;;;5.10;98.00;;;;;;6120758;23;20410;-69
2022/04/05 05:32:51;;;;;;;1.50;1.30;;;5.10;98.00;;;;;;6121053;23;20410;-69
2022/04/05 05:35:19;;;;;;;1.57;1.47;;;5.20;98.00;;;;;;6120944;23;20733;-69
2022/04/05 05:37:47;;;;;;;1.20;1.20;;;5.20;98.00;;;;;;6096010;23;20426;-69
2022/04/05 05:40:15;;;;;;;1.70;1.60;;;5.20;98.00;;;;;;6121154;23;20420;-69
2022/04/05 05:42:50;;;;;;;2.90;1.77;;;5.20;98.00;;;;;;6120894;23;20417;-69
2022/04/05 05:45:18;;;;;;;1.87;1.80;;;5.20;98.00;;;;;;6120541;23;20426;-69
2022/04/05 05:47:45;;;;;;;1.20;1.00;;;5.10;98.00;;;;;;6121479;23;20881;-69
2022/04/05 05:50:13;;;;;;;1.60;1.33;;;5.10;98.00;;;;;;6120773;23;20944;-69
2022/04/05 05:52:41;;;;;;;1.20;1.03;;;5.10;98.00;;;;;;6121131;23;20461;-69
2022/04/05 05:55:09;;;;;;;1.97;1.27;;;5.10;98.00;;;;;;6095450;23;20450;-69
2022/04/05 05:57:36;;;;;;;1.60;1.50;;;5.20;98.00;;;;;;6120897;23;20936;-69
2022/04/05 06:00:07;;;;;;;2.83;2.00;;;5.20;98.00;;;;;;6120879;23;20748;-69
2022/04/05 06:02:39;;;;;;;1.20;1.00;;;5.30;98.00;;;;;;6121163;23;20798;-69
2022/04/05 06:05:07;;;;;;;1.77;1.40;;;5.30;98.00;;;;;;6121146;23;20403;-69
2022/04/05 06:07:35;;;;;;;1.40;1.33;;;5.30;98.00;;;;;;6121079;23;20498;-69
2022/04/05 06:10:03;;;;;;;2.23;1.60;;;5.30;98.00;;;;;;6121077;23;20402;-69
2022/04/05 06:12:30;;;;;;;1.47;1.40;;;5.40;98.00;;;;;;6120586;23;20483;-69
2022/04/05 06:14:57;;;;;;;1.80;1.33;;;5.30;98.00;;;;;;6120476;23;20500;-69
2022/04/05 06:17:26;;;;;;;1.10;1.00;;;5.30;98.00;;;;;;6120472;23;20403;-70
2022/04/05 06:19:53;;;;;;;1.87;1.47;;;5.40;98.00;;;;;;6120821;23;20891;-70
2022/04/05 06:22:19;;;;;;;1.17;1.00;;;5.30;98.00;;;;;;6120469;23;20455;-69
2022/04/05 06:24:49;;;;;;;1.50;1.40;;;5.30;98.00;;;;;;6120912;23;20694;-69
2022/04/05 06:27:17;;;;;;;1.30;1.30;;;5.30;98.00;;;;;;6094752;23;20996;-69
2022/04/05 06:29:44;;;;;;;1.20;0.90;;;5.40;98.00;;;;;;6120345;23;20445;-69
2022/04/05 06:32:11;;;;;;;1.20;1.00;;;5.50;98.00;;;;;;6120049;23;20402;-69
2022/04/05 06:34:39;;;;;;;1.40;1.20;;;5.50;98.00;;;;;;6119795;23;20431;-69
2022/04/05 06:37:06;;;;;;;1.87;1.77;;;5.60;98.00;;;;;;6120434;23;21030;-70
2022/04/05 06:39:33;;;;;;;1.20;1.00;;;5.50;98.00;;;;;;6120871;23;20472;-70
2022/04/05 06:42:00;;;;;;;1.47;1.37;;;5.60;98.00;;;;;;6120502;23;20464;-69
2022/04/05 06:44:27;;;;;;;1.60;1.50;;;5.60;98.00;;;;;;6120792;23;20472;-69
2022/04/05 06:46:56;;;;;;;1.30;1.20;;;5.70;98.00;;;;;;6120404;23;20924;-68
2022/04/05 06:49:23;;;;;;;1.43;1.30;;;5.80;98.00;;;;;;6120621;23;20806;-67
2022/04/05 06:51:51;;;;;;;2.20;1.50;;;5.80;98.00;;;;;;6120518;23;20883;-67
2022/04/05 06:54:18;;;;;;;1.87;1.30;;;5.90;98.00;;;;;;6120165;23;20447;-68
2022/04/05 06:56:45;;;;;;;1.50;1.10;;;5.90;98.00;;;;;;6120888;23;20420;-68
2022/04/05 06:59:12;;;;;;;1.40;1.30;;;5.90;98.00;;;;;;6121394;23;20455;-67
2022/04/05 07:01:39;;;;;;;1.30;1.20;;;5.80;98.00;;;;;;6121466;23;20460;-68
2022/04/05 07:04:06;;;;;;;1.20;1.00;;;6.00;98.00;;;;;;6121707;23;20407;-67
2022/04/05 07:06:33;;;;;;;1.30;1.20;;;6.00;98.00;;;;;;6095719;23;20449;-68
2022/04/05 07:09:01;;;;;;;1.50;1.33;;;5.90;98.00;;;;;;6121832;23;20420;-67
2022/04/05 07:11:29;;;;;;;1.20;1.10;;;5.90;98.00;;;;;;6121346;23;20451;-67
2022/04/05 07:13:56;;;;;;;2.27;2.10;;;5.90;98.00;;;;;;6120960;23;20773;-67
2022/04/05 07:16:25;;;;;;;2.37;1.50;;;5.90;98.00;;;;;;6121838;23;20413;-68
2022/04/05 07:18:52;;;;;;;4.20;1.90;;;5.90;98.00;;;;;;6096320;23;20426;-68
2022/04/05 07:21:20;;;;;;;2.37;1.30;;;5.90;98.00;;;;;;6121493;23;20404;-68
2022/04/05 07:23:48;;;;;;;1.23;1.00;;;5.90;98.00;;;;;;6121772;23;20494;-67
2022/04/05 07:26:25;;;;;;;1.43;1.30;;;5.90;98.00;;;;;;6121719;23;20430;-68
2022/04/05 07:28:52;;;;;;;1.20;1.00;;;6.00;98.00;;;;;;6095730;23;20905;-68
2022/04/05 07:31:19;;;;;;;1.67;1.40;;;6.00;98.00;;;;;;6121820;23;20478;-68
2022/04/05 07:33:46;;;;;;;1.20;1.10;;;6.00;98.00;;;;;;6121879;23;20466;-68
2022/04/05 07:36:13;;;;;;;1.30;1.00;;;6.10;98.00;;;;;;6121630;23;20532;-67
2022/04/05 07:38:40;;;;;;;3.13;1.93;;;6.10;98.00;;;;;;6096104;23;20847;-67
2022/04/05 07:41:07;;;;;;;1.20;1.00;;;6.20;98.00;;;;;;6095875;23;20416;-68
2022/04/05 07:43:35;;;;;;;1.20;1.00;;;6.20;98.00;;;;;;6121417;23;20420;-67
2022/04/05 07:46:02;;;;;;;2.20;1.63;;;6.30;98.00;;;;;;6121421;23;20459;-67
2022/04/05 07:48:30;;;;;;;1.20;1.00;;;6.20;98.00;;;;;;6121276;23;20434;-67
2022/04/05 07:50:59;;;;;;;1.43;1.20;;;6.20;98.00;;;;;;6121193;23;20429;-67
2022/04/05 07:53:25;;;;;;;1.20;1.00;;;6.10;98.00;;;;;;6121634;23;20470;-67
2022/04/05 07:55:54;;;;;;;1.10;1.00;;;6.20;98.00;;;;;;6121550;23;20443;-67
2022/04/05 07:58:21;;;;;;;1.83;1.20;;;6.20;98.00;;;;;;6096146;23;20449;-67
2022/04/05 08:00:49;;;;;;;1.20;1.00;;;6.30;98.00;;;;;;6121478;23;20418;-67
2022/04/05 08:03:17;;;;;;;1.30;1.10;;;6.30;98.00;;;;;;6121373;23;20417;-67
2022/04/05 08:05:44;;;;;;;1.50;1.27;;;6.20;98.00;;;;;;6121585;23;20411;-68
2022/04/05 08:08:12;;;;;;;1.30;1.07;;;6.70;98.00;;;;;;6120925;23;20409;-68
2022/04/05 08:10:39;;;;;;;1.30;1.30;;;7.20;98.00;;;;;;6121323;23;20407;-68
2022/04/05 08:13:06;;;;;;;2.90;1.67;;;7.20;98.00;;;;;;6121292;23;20907;-67
2022/04/05 08:15:34;;;;;;;1.77;1.10;;;7.00;98.00;;;;;;6121432;23;20477;-67
2022/04/05 08:18:02;;;;;;;1.40;1.23;;;6.90;98.00;;;;;;6121767;23;20447;-68
2022/04/05 08:20:29;;;;;;;1.47;1.37;;;6.70;98.00;;;;;;6096009;23;20457;-68
2022/04/05 08:22:56;;;;;;;1.20;1.17;;;6.70;98.00;;;;;;6121769;23;20411;-68
2022/04/05 08:25:23;;;;;;;1.93;1.27;;;6.80;98.00;;;;;;6121304;23;20456;-68
2022/04/05 08:27:50;;;;;;;1.20;1.00;;;6.70;98.00;;;;;;6121486;23;20428;-67
2022/04/05 08:30:19;;;;;;;1.30;1.20;;;6.60;98.00;;;;;;6121322;23;20403;-68
2022/04/05 08:32:47;;;;;;;1.30;1.23;;;6.70;98.00;;;;;;6121465;23;20411;-68
2022/04/05 08:35:17;;;;;;;1.77;1.30;;;6.70;98.00;;;;;;6121074;23;21120;-68
2022/04/05 08:37:45;;;;;;;1.40;1.17;;;6.80;98.00;;;;;;6121200;23;20407;-68
2022/04/05 08:40:13;;;;;;;1.20;1.20;;;6.90;98.00;;;;;;6121521;23;20721;-68
2022/04/05 08:42:44;;;;;;;1.23;1.20;;;7.00;98.00;;;;;;6120762;23;20409;-68
2022/04/05 08:45:13;;;;;;;2.43;1.63;;;7.00;98.00;;;;;;6121341;23;20468;-67
2022/04/05 08:47:41;;;;;;;1.20;1.00;;;7.00;98.00;;;;;;6121239;23;20408;-68
2022/04/05 08:50:10;;;;;;;1.63;1.10;;;7.00;98.00;;;;;;6120957;23;20436;-67
2022/04/05 08:52:38;;;;;;;1.70;1.40;;;7.00;98.00;;;;;;6121358;23;20442;-68
2022/04/05 08:55:06;;;;;;;1.20;1.10;;;7.00;98.00;;;;;;6121222;23;20767;-68
2022/04/05 08:57:33;;;;;;;1.20;1.10;;;7.00;98.00;;;;;;6121180;23;20421;-68
2022/04/05 09:00:01;;;;;;;1.20;1.00;;;7.10;98.00;;;;;;6121412;23;20423;-68
2022/04/05 09:02:29;;;;;;;1.87;1.67;;;7.10;98.00;;;;;;6121291;23;20817;-68
2022/04/05 09:04:56;;;;;;;1.40;1.10;;;7.00;98.00;;;;;;6121416;23;20455;-67
2022/04/05 09:07:24;;;;;;;2.33;1.50;;;7.10;98.00;;;;;;6121576;23;20441;-68
2022/04/05 09:10:13;;;;;;;1.20;1.00;;;7.20;98.00;;;;;;6121172;23;20423;-68
2022/04/05 09:12:47;;;;;;;1.20;1.10;;;7.20;98.00;;;;;;6095252;23;20462;-68
2022/04/05 09:15:28;;;;;;;1.70;1.33;;;7.20;98.00;;;;;;6121615;23;20431;-69
2022/04/05 09:17:55;;;;;;;1.20;1.00;;;7.20;98.00;;;;;;6121675;23;20416;-68
2022/04/05 09:20:24;;;;;;;1.73;1.33;;;7.30;98.00;;;;;;6121310;23;20474;-67
2022/04/05 09:22:52;;;;;;;1.57;1.30;;;7.40;98.00;;;;;;6120630;23;20519;-68
2022/04/05 09:25:23;;;;;;;1.87;1.47;;;7.40;98.00;;;;;;6121024;23;20394;-68
2022/04/05 09:27:51;;;;;;;1.30;1.20;;;7.30;98.00;;;;;;6121176;23;20432;-67
2022/04/05 09:30:20;;;;;;;1.20;1.10;;;7.40;98.00;;;;;;6120864;23;20452;-69
2022/04/05 09:32:48;;;;;;;1.20;1.00;;;7.50;98.00;;;;;;6118191;23;20427;-68
2022/04/05 09:35:18;;;;;;;1.60;1.40;;;7.60;98.00;;;;;;6120069;23;20513;-69
2022/04/05 09:37:46;;;;;;;1.20;1.07;;;7.60;98.00;;;;;;6119227;23;20463;-68
2022/04/05 09:40:34;;;;;;;1.20;1.10;;;7.60;98.00;;;;;;6119677;23;20463;-68
2022/04/05 09:43:07;;;;;;;1.50;1.30;;;7.60;98.00;;;;;;6120138;23;20398;-69
2022/04/05 09:46:00;;;;;;;1.73;1.73;;;7.70;98.00;;;;;;6120329;23;20433;-69
2022/04/05 09:48:29;;;;;;;1.40;1.33;;;7.80;98.00;;;;;;6119942;23;20469;-68
2022/04/05 09:51:07;;;;;;;1.30;1.10;;;7.80;98.00;;;;;;6119217;23;20462;-68
2022/04/05 09:53:48;;;;;;;1.37;1.30;;;7.80;98.00;;;;;;6120249;23;20436;-68
2022/04/05 09:56:18;;;;;;;1.20;1.07;;;7.90;98.00;;;;;;6119944;23;20447;-69
2022/04/05 09:58:48;;;;;;;1.50;1.40;;;7.90;98.00;;;;;;6119889;23;20439;-68
2022/04/05 10:01:15;;;;;;;1.70;1.47;;;8.00;98.00;;;;;;6094108;23;20452;-67
2022/04/05 10:03:44;;;;;;;1.20;0.90;;;8.00;98.00;;;;;;6119979;23;20402;-67
2022/04/05 10:06:11;;;;;;;1.20;1.00;;;8.10;98.00;;;;;;6119933;23;20402;-68
2022/04/05 10:08:41;;;;;;;1.30;1.10;;;8.10;98.00;;;;;;6120597;23;20406;-68
2022/04/05 10:11:08;;;;;;;1.20;1.10;;;8.10;98.00;;;;;;6120229;23;20426;-68
2022/04/05 10:13:36;;;;;;;1.20;1.10;;;8.10;98.00;;;;;;6120113;23;20436;-68
2022/04/05 10:16:04;;;;;;;1.87;1.40;;;8.20;98.00;;;;;;6094066;23;20497;-68
2022/04/05 10:18:34;;;;;;;1.27;1.13;;;8.30;98.00;;;;;;6119410;23;20430;-68
2022/04/05 10:21:02;;;;;;;1.73;1.27;;;8.30;98.00;;;;;;6119568;23;20413;-69
2022/04/05 10:23:30;;;;;;;2.53;2.33;;;8.40;98.00;;;;;;6119764;23;21001;-68
2022/04/05 10:25:58;;;;;;;1.40;1.40;;;8.40;98.00;;;;;;6093945;23;20985;-67
2022/04/05 10:28:27;;;;;;;1.87;1.23;;;8.50;98.00;;;;;;6119612;23;20409;-67
2022/04/05 10:31:02;;;;;;;2.27;1.50;;;8.60;98.00;;;;;;6093124;23;20483;-68
2022/04/05 10:33:38;;;;;;;1.37;1.33;;;8.60;98.00;;;;;;6119462;23;20439;-68
2022/04/05 10:36:08;;;;;;;1.30;1.20;;;8.70;98.00;;;;;;6119462;23;20430;-69
2022/04/05 10:38:36;;;;;;;1.70;1.60;;;8.80;98.00;;;;;;6119545;23;20883;-68
2022/04/05 10:41:16;;;;;;;1.50;1.23;;;8.90;98.00;;;;;;6119897;23;20459;-68
2022/04/05 10:43:45;;;;;;;1.43;1.10;;;9.10;98.00;;;;;;6120117;23;20453;-68
2022/04/05 10:46:14;;;;;;;1.20;1.03;;;9.10;98.00;;;;;;6119676;23;20853;-67
2022/04/05 10:48:58;;;;;;;1.20;1.10;;;9.00;98.00;;;;;;6120194;23;20712;-69
2022/04/05 10:51:35;;;;;;;1.40;1.10;;;9.00;98.00;;;;;;6118788;23;20446;-67
2022/04/05 10:54:19;;;;;;;1.40;1.20;;;8.90;98.00;;;;;;6119689;23;20400;-68
2022/04/05 10:57:21;;;;;;;1.20;1.07;;;8.90;98.00;;;;;;6119809;23;20433;-68
2022/04/05 10:59:57;;;;;;;1.97;1.60;;;8.80;98.00;;;;;;6119423;23;20423;-68
2022/04/05 11:02:39;;;;;;;1.40;1.33;;;8.80;98.00;;;;;;6119724;23;20757;-68
2022/04/05 11:05:35;;;;;;;1.30;1.30;;;8.70;98.00;;;;;;6119950;23;20828;-68
2022/04/05 11:08:16;;;;;;;1.73;1.60;;;8.60;98.00;;;;;;6119735;23;20425;-69
2022/04/05 11:10:54;;;;;;;1.60;1.40;;;8.60;98.00;;;;;;6119720;23;20399;-69
2022/04/05 11:13:33;;;;;;;2.07;1.40;;;8.50;98.00;;;;;;6119814;23;20408;-69
2022/04/05 11:16:03;;;;;;;1.30;1.10;;;8.60;98.00;;;;;;6118928;23;20481;-68
2022/04/05 11:18:44;;;;;;;1.23;1.10;;;8.70;98.00;;;;;;6070406;23;20464;-68
2022/04/05 11:21:11;;;;;;;1.20;1.17;;;8.70;98.00;;;;;;6094531;23;20481;-68
2022/04/05 11:23:58;;;;;;;4.07;1.83;;;8.70;98.00;;;;;;6119756;23;20792;-68
2022/04/05 11:26:35;;;;;;;1.20;0.90;;;8.80;98.00;;;;;;6093798;23;20746;-68
2022/04/05 11:29:18;;;;;;;1.37;1.20;;;8.70;98.00;;;;;;6118891;23;20443;-69
2022/04/05 11:31:46;;;;;;;1.83;1.53;;;8.80;98.00;;;;;;6118219;23;20407;-68
2022/04/05 11:34:35;;;;;;;1.30;1.27;;;8.80;98.00;;;;;;6119240;23;20431;-68
2022/04/05 11:37:04;;;;;;;1.20;1.00;;;8.90;98.00;;;;;;6119075;23;20432;-69
2022/04/05 11:39:35;;;;;;;1.20;1.10;;;9.00;98.00;;;;;;6119398;23;20440;-68
2022/04/05 11:42:10;;;;;;;1.40;1.10;;;9.00;98.00;;;;;;6119099;23;20871;-70
2022/04/05 11:44:47;;;;;;;3.53;1.20;;;9.60;98.00;;;;;;6094664;23;20405;-69
2022/04/05 11:47:15;;;;;;;1.57;1.40;;;9.60;98.00;;;;;;6120781;23;20449;-68
2022/04/05 11:49:44;;;;;;;1.73;1.60;;;9.50;98.00;;;;;;6119397;23;20900;-68
2022/04/05 11:52:11;;;;;;;2.33;1.80;;;9.50;98.00;;;;;;6120250;23;20420;-69
2022/04/05 11:57:20;;;;;;;1.33;1.23;;;9.50;98.00;;;;;;6119406;23;20458;-69
2022/04/05 11:59:47;;;;;;;1.40;1.30;;;9.50;98.00;;;;;;6095146;23;20429;-69
2022/04/05 12:02:14;;;;;;;1.30;1.10;;;9.60;98.00;;;;;;6119991;23;20459;-69
2022/04/05 12:04:40;;;;;;;2.17;1.67;;;9.80;98.00;;;;;;6120713;23;20817;-69
2022/04/05 12:07:09;;;;;;;1.53;1.47;;;9.90;98.00;;;;;;6120145;23;20429;-69
2022/04/05 12:09:36;;;;;;;1.30;1.10;;;10.00;98.00;;;;;;6120419;23;20425;-69
2022/04/05 12:12:05;;;;;;;1.87;1.50;;;10.10;98.00;;;;;;6120415;23;20417;-69
2022/04/05 12:14:35;;;;;;;1.53;1.17;;;10.20;98.00;;;;;;6120440;23;20741;-69
2022/04/05 12:17:05;;;;;;;1.20;1.10;;;10.20;98.00;;;;;;6120149;23;20437;-69
2022/04/05 12:19:36;;;;;;;1.77;1.40;;;10.30;98.00;;;;;;6120517;23;20440;-70
2022/04/05 12:22:06;;;;;;;1.60;1.23;;;10.30;98.00;;;;;;6120195;23;20932;-69
2022/04/05 12:24:49;;;;;;;1.30;1.30;;;10.40;98.00;;;;;;6120146;23;20888;-69
2022/04/05 12:27:19;;;;;;;3.10;1.50;;;10.60;98.00;;;;;;6120687;23;20401;-67
2022/04/05 12:29:46;;;;;;;1.20;1.00;;;10.90;98.00;;;;;;6120513;23;20408;-68
2022/04/05 12:32:15;;;;;;;1.50;1.20;;;11.10;98.00;;;;;;6120199;23;20413;-67
2022/04/05 12:34:43;;;;;;;1.40;1.20;;;11.00;98.00;;;;;;6120471;23;20443;-67
2022/04/05 12:37:14;;;;;;;1.53;1.10;;;11.10;98.00;;;;;;6119941;23;20445;-67
2022/04/05 12:39:44;;;;;;;2.03;1.40;;;11.00;98.00;;;;;;6120625;23;20413;-67
2022/04/05 12:42:13;;;;;;;1.20;1.07;;;10.90;98.00;;;;;;6120023;23;20439;-66
2022/04/05 12:44:42;;;;;;;1.27;1.20;;;10.70;98.00;;;;;;6120300;23;20459;-67
2022/04/05 12:47:11;;;;;;;1.40;1.27;;;10.70;98.00;;;;;;6120484;23;20472;-67
2022/04/05 12:49:40;;;;;;;1.30;1.10;;;10.60;98.00;;;;;;6119759;23;20436;-67
2022/04/05 12:52:10;;;;;;;1.20;1.10;;;10.70;98.00;;;;;;6120568;23;20491;-68
2022/04/05 12:54:39;;;;;;;1.33;1.10;;;10.70;98.00;;;;;;6119869;23;20877;-68
2022/04/05 12:57:22;;;;;;;1.20;1.00;;;10.70;98.00;;;;;;6120397;23;20431;-68
2022/04/05 12:59:51;;;;;;;1.20;1.00;;;10.60;98.00;;;;;;6120202;23;20475;-68
2022/04/05 13:02:20;;;;;;;1.60;1.17;;;10.50;98.00;;;;;;6119964;23;20418;-68
2022/04/05 13:04:48;;;;;;;1.50;1.50;;;10.40;98.00;;;;;;6119666;23;20475;-68
2022/04/05 13:07:16;;;;;;;1.40;1.30;;;10.20;98.00;;;;;;6119857;23;20412;-67